Time;durP1;ratioP1;P1;durP2;ratioP2;P2;SDS_P1;SDS_P2;PMS_P1;PMS_P2;Temp;Humidity;BMP_temperature;BMP_pressure;BME280_temperature;BME280_humidity;BME280_pressure;Samples;Min_cycle;Max_cycle;Signal;HPM_P1;HPM_P2
2023/03/27 00:02:22;;;;;;;1999.90;999.90;;;20.90;99.90;;;;;;5025290;28;21032;-69
2023/03/27 00:04:50;;;;;;;1999.90;999.90;;;21.00;99.90;;;;;;5030500;28;20111;-69
2023/03/27 00:07:18;;;;;;;1999.90;999.90;;;20.90;99.90;;;;;;5026680;28;20022;-70
2023/03/27 00:09:47;;;;;;;1999.90;999.90;;;21.00;99.90;;;;;;5037108;28;20763;-69
2023/03/27 00:12:14;;;;;;;1999.90;999.90;;;21.00;99.90;;;;;;5029935;28;20480;-68
2023/03/27 00:14:42;;;;;;;1999.90;999.90;;;21.10;99.90;;;;;;5037695;28;20030;-70
2023/03/27 00:17:09;;;;;;;1999.90;999.90;;;21.10;99.90;;;;;;5027375;28;20063;-69
2023/03/27 00:19:37;;;;;;;1999.90;999.90;;;21.20;99.90;;;;;;5033836;28;20076;-69
2023/03/27 00:22:04;;;;;;;1999.90;999.90;;;21.20;99.90;;;;;;5039093;28;20033;-69
2023/03/27 00:24:33;;;;;;;1999.90;999.90;;;21.40;99.90;;;;;;5032048;28;20025;-69
2023/03/27 00:27:00;;;;;;;1999.90;999.90;;;21.50;99.90;;;;;;5041215;28;20522;-69
2023/03/27 00:29:27;;;;;;;1999.90;999.90;;;21.60;99.90;;;;;;5034415;28;20095;-69
2023/03/27 00:31:55;;;;;;;1999.90;999.90;;;21.60;99.90;;;;;;5035962;28;20535;-69
2023/03/27 00:34:22;;;;;;;1999.90;999.90;;;21.60;99.90;;;;;;5037727;28;20034;-68
2023/03/27 00:36:50;;;;;;;1999.90;999.90;;;21.70;99.90;;;;;;5037265;28;20053;-70
2023/03/27 00:39:18;;;;;;;1999.90;999.90;;;21.60;99.90;;;;;;5018448;28;20025;-70
2023/03/27 00:41:47;;;;;;;1999.90;999.90;;;21.60;99.90;;;;;;5020518;28;20377;-69
2023/03/27 00:44:29;;;;;;;1999.90;999.90;;;21.60;99.90;;;;;;5018733;28;20033;-70
2023/03/27 00:46:57;;;;;;;1999.90;999.90;;;21.70;99.90;;;;;;5022476;28;20124;-69
2023/03/27 00:49:28;;;;;;;1999.90;999.90;;;21.70;99.90;;;;;;5031834;28;20029;-68
2023/03/27 00:51:57;;;;;;;1999.90;999.90;;;21.70;99.90;;;;;;5034151;28;20069;-68
2023/03/27 00:54:29;;;;;;;1999.90;999.90;;;21.70;99.90;;;;;;5039998;28;20029;-68
2023/03/27 00:57:01;;;;;;;1999.90;999.90;;;21.70;99.90;;;;;;5028211;28;20053;-68
2023/03/27 00:59:33;;;;;;;1999.90;999.90;;;21.70;99.90;;;;;;5029605;28;20030;-68
2023/03/27 01:02:03;;;;;;;1999.90;999.90;;;21.80;99.90;;;;;;5031608;28;20149;-69
2023/03/27 01:04:32;;;;;;;1999.90;999.90;;;21.80;99.90;;;;;;5028776;28;20098;-70
2023/03/27 01:07:01;;;;;;;1999.90;999.90;;;21.90;99.90;;;;;;5024720;28;20076;-70
2023/03/27 01:09:29;;;;;;;1999.90;999.90;;;21.90;99.90;;;;;;5028721;28;20036;-70
2023/03/27 01:12:06;;;;;;;1999.90;999.90;;;21.90;99.90;;;;;;5031448;28;20045;-69
2023/03/27 01:14:37;;;;;;;1999.90;999.90;;;22.00;99.90;;;;;;5030563;28;20025;-70
2023/03/27 01:17:13;;;;;;;1999.90;999.90;;;22.20;99.90;;;;;;5024216;28;20049;-69
2023/03/27 01:19:59;;;;;;;1999.90;999.90;;;22.20;99.90;;;;;;5029248;28;20032;-69
2023/03/27 01:22:32;;;;;;;;;;;22.30;99.90;;;;;;5027420;28;20532;-69
2023/03/27 01:25:33;;;;;;;1999.90;999.90;;;22.40;99.90;;;;;;5024952;28;19918;-69
2023/03/27 01:28:16;;;;;;;1999.90;999.90;;;22.40;99.90;;;;;;5028693;28;20017;-71
2023/03/27 01:30:55;;;;;;;1999.90;999.90;;;22.40;99.90;;;;;;5028051;28;20033;-70
2023/03/27 01:33:55;;;;;;;1999.90;999.90;;;22.60;99.90;;;;;;5027756;28;20431;-69
2023/03/27 01:36:44;;;;;;;1999.90;999.90;;;22.80;99.90;;;;;;5027238;28;20134;-70
2023/03/27 01:39:34;;;;;;;1999.90;999.90;;;22.80;99.90;;;;;;5026557;28;20038;-70
2023/03/27 01:42:22;;;;;;;1999.90;999.90;;;22.80;99.90;;;;;;5028958;28;20089;-70
2023/03/27 01:45:18;;;;;;;1999.90;999.90;;;23.00;99.90;;;;;;5027608;28;20041;-70
2023/03/27 01:48:04;;;;;;;1999.90;999.90;;;23.10;99.90;;;;;;5019295;28;20045;-71
2023/03/27 01:50:35;;;;;;;1999.90;999.90;;;23.30;99.90;;;;;;5028315;28;20476;-69
2023/03/27 01:53:14;;;;;;;1999.90;999.90;;;23.20;99.90;;;;;;5035416;28;20109;-71
2023/03/27 01:55:48;;;;;;;1999.90;999.90;;;23.20;99.90;;;;;;5038422;28;20033;-69
2023/03/27 01:58:21;;;;;;;1999.90;999.90;;;23.20;99.90;;;;;;5043139;28;20112;-70
2023/03/27 02:00:54;;;;;;;1999.90;999.90;;;23.20;99.90;;;;;;5030779;28;20076;-71
2023/03/27 02:03:26;;;;;;;1999.90;999.90;;;23.30;99.90;;;;;;5032740;28;20021;-71
2023/03/27 02:05:58;;;;;;;1999.90;999.90;;;23.40;99.90;;;;;;5028694;28;20041;-71
2023/03/27 02:08:56;;;;;;;1999.90;999.90;;;23.60;99.90;;;;;;5020078;28;20060;-71
2023/03/27 02:11:28;;;;;;;1999.90;999.90;;;23.60;99.90;;;;;;5034047;28;20038;-71
2023/03/27 02:14:13;;;;;;;1999.90;999.90;;;23.50;99.90;;;;;;5037823;28;20156;-70
2023/03/27 02:16:45;;;;;;;1999.90;999.90;;;23.50;99.90;;;;;;5034583;28;20058;-71
2023/03/27 02:19:44;;;;;;;1999.90;999.90;;;23.60;99.90;;;;;;5034823;28;20025;-71
2023/03/27 02:22:13;;;;;;;1999.90;999.90;;;23.60;99.90;;;;;;5035026;28;20040;-71
2023/03/27 02:24:42;;;;;;;1999.90;999.90;;;23.60;99.90;;;;;;5035342;28;20038;-69
2023/03/27 02:27:36;;;;;;;1999.90;999.90;;;23.60;99.90;;;;;;5027897;28;20037;-69
2023/03/27 02:30:35;;;;;;;1999.90;999.90;;;23.60;99.90;;;;;;5022407;28;20491;-70
2023/03/27 02:33:22;;;;;;;1999.90;999.90;;;23.60;99.90;;;;;;5033398;28;20045;-71
2023/03/27 02:36:05;;;;;;;1999.90;999.90;;;23.40;99.90;;;;;;5029820;28;20030;-70
2023/03/27 02:38:42;;;;;;;1999.90;999.90;;;23.40;99.90;;;;;;5033393;28;20032;-69
2023/03/27 02:41:36;;;;;;;1999.90;999.90;;;23.30;99.90;;;;;;5030548;28;20037;-69
2023/03/27 02:44:29;;;;;;;1999.90;999.90;;;23.30;99.90;;;;;;5034797;28;20029;-71
2023/03/27 02:47:15;;;;;;;1999.90;999.90;;;23.20;99.90;;;;;;5034538;28;20395;-72
2023/03/27 02:50:14;;;;;;;;;;;23.20;99.90;;;;;;5038459;28;20047;-69
2023/03/27 02:52:51;;;;;;;1999.90;999.90;;;23.20;99.90;;;;;;5026094;28;19917;-69
2023/03/27 02:55:32;;;;;;;1999.90;999.90;;;23.20;99.90;;;;;;5035111;28;20021;-71
2023/03/27 02:58:07;;;;;;;1999.90;999.90;;;23.20;99.90;;;;;;5026724;28;20691;-69
2023/03/27 03:00:42;;;;;;;1999.90;999.90;;;23.20;99.90;;;;;;5027506;28;20033;-69
2023/03/27 03:03:52;;;;;;;1999.90;999.90;;;23.10;99.90;;;;;;5022848;28;20106;-70
2023/03/27 03:06:28;;;;;;;1999.90;999.90;;;23.10;99.90;;;;;;5001781;28;20119;-70
2023/03/27 03:09:02;;;;;;;1999.90;999.90;;;23.10;99.90;;;;;;5017253;28;20472;-69
2023/03/27 03:11:30;;;;;;;1999.90;999.90;;;23.10;99.90;;;;;;5024650;28;20492;-71
2023/03/27 03:13:58;;;;;;;1999.90;999.90;;;23.20;99.90;;;;;;5020378;28;20017;-71
2023/03/27 03:16:26;;;;;;;1999.90;999.90;;;23.20;99.90;;;;;;5039641;28;20056;-69
2023/03/27 03:18:53;;;;;;;1999.90;999.90;;;23.20;99.90;;;;;;5023445;28;20026;-70
2023/03/27 03:21:20;;;;;;;1999.90;999.90;;;23.20;99.90;;;;;;5024702;28;20075;-70
2023/03/27 03:23:48;;;;;;;1999.90;999.90;;;23.30;99.90;;;;;;5031548;28;20484;-72
2023/03/27 03:26:15;;;;;;;1999.90;999.90;;;23.30;99.90;;;;;;5024441;28;20384;-72
2023/03/27 03:28:43;;;;;;;1999.90;999.90;;;23.30;99.90;;;;;;5028469;28;20032;-72
2023/03/27 03:31:10;;;;;;;1999.90;999.90;;;23.40;99.90;;;;;;5027417;28;20041;-72
2023/03/27 03:33:37;;;;;;;1999.90;999.90;;;23.40;99.90;;;;;;5029686;28;20464;-71
2023/03/27 03:36:05;;;;;;;1999.90;999.90;;;23.50;99.90;;;;;;5033589;28;20033;-72
2023/03/27 03:38:34;;;;;;;1999.90;999.90;;;23.50;99.90;;;;;;5031725;28;20510;-72
2023/03/27 03:41:01;;;;;;;1999.90;999.90;;;23.60;99.90;;;;;;5039383;28;20053;-71
2023/03/27 03:43:30;;;;;;;1999.90;999.90;;;23.70;99.90;;;;;;5029799;28;20045;-72
2023/03/27 03:45:59;;;;;;;1999.90;999.90;;;23.70;99.90;;;;;;5038201;28;20041;-71
2023/03/27 03:48:27;;;;;;;1999.90;999.90;;;23.70;99.90;;;;;;5030898;28;20048;-72
2023/03/27 03:50:54;;;;;;;1999.90;999.90;;;23.70;99.90;;;;;;5034443;28;20036;-72
2023/03/27 03:53:22;;;;;;;1999.90;999.90;;;23.60;99.90;;;;;;5031861;28;20025;-72
2023/03/27 03:55:52;;;;;;;1999.90;999.90;;;23.60;99.90;;;;;;5038140;28;20029;-72
2023/03/27 03:58:19;;;;;;;1999.90;999.90;;;23.50;99.90;;;;;;5032547;28;20029;-71
2023/03/27 04:00:47;;;;;;;1999.90;999.90;;;23.40;99.90;;;;;;5022344;28;20033;-71
2023/03/27 04:03:14;;;;;;;1999.90;999.90;;;23.40;99.90;;;;;;5027655;28;20097;-71
2023/03/27 04:05:42;;;;;;;1999.90;999.90;;;23.30;99.90;;;;;;5021685;28;20037;-70
2023/03/27 04:08:10;;;;;;;1999.90;999.90;;;23.30;99.90;;;;;;5024014;28;20060;-72
2023/03/27 04:10:40;;;;;;;1999.90;999.90;;;23.30;99.90;;;;;;5025235;28;20083;-73
2023/03/27 04:13:07;;;;;;;1999.90;999.90;;;23.30;99.90;;;;;;5021205;28;20039;-71
2023/03/27 04:15:35;;;;;;;1999.90;999.90;;;23.30;99.90;;;;;;5024093;28;20026;-71
2023/03/27 04:18:03;;;;;;;1999.90;999.90;;;23.40;99.90;;;;;;5025316;28;20021;-71
2023/03/27 04:20:33;;;;;;;1999.90;999.90;;;23.40;99.90;;;;;;5023127;28;20025;-72
2023/03/27 04:23:01;;;;;;;1999.90;999.90;;;23.50;99.90;;;;;;5026110;28;20029;-70
2023/03/27 04:25:29;;;;;;;1999.90;999.90;;;23.50;99.90;;;;;;5031645;28;20037;-71
2023/03/27 04:27:56;;;;;;;1999.90;999.90;;;23.50;99.90;;;;;;5029742;28;20473;-70
2023/03/27 04:30:26;;;;;;;1999.90;999.90;;;23.60;99.90;;;;;;5035393;28;20040;-71
2023/03/27 04:32:58;;;;;;;1999.90;999.90;;;23.70;99.90;;;;;;5028151;28;20044;-71
2023/03/27 04:35:26;;;;;;;1999.90;999.90;;;23.80;99.90;;;;;;5029275;28;20029;-72
2023/03/27 04:37:53;;;;;;;1999.90;999.90;;;24.00;99.90;;;;;;5033692;28;20045;-71
2023/03/27 04:40:20;;;;;;;1999.90;999.90;;;24.10;99.90;;;;;;5035855;28;20558;-71
2023/03/27 04:42:48;;;;;;;1999.90;999.90;;;24.20;99.90;;;;;;5034722;28;20175;-71
2023/03/27 04:45:19;;;;;;;1999.90;999.90;;;24.40;99.90;;;;;;5031436;28;20075;-72
2023/03/27 04:47:47;;;;;;;1999.90;999.90;;;24.50;99.90;;;;;;5026470;28;20680;-74
2023/03/27 04:50:15;;;;;;;1999.90;999.90;;;24.60;99.90;;;;;;5028829;28;20029;-72
2023/03/27 04:52:45;;;;;;;1999.90;999.90;;;24.70;99.90;;;;;;5027834;28;20047;-73
2023/03/27 04:55:13;;;;;;;1999.90;999.90;;;24.90;99.90;;;;;;5025398;28;20451;-71
2023/03/27 04:57:45;;;;;;;1999.90;999.90;;;25.00;99.90;;;;;;5028005;28;20454;-70
2023/03/27 05:00:17;;;;;;;1999.90;999.90;;;25.00;99.90;;;;;;5024363;28;20052;-71
2023/03/27 05:02:46;;;;;;;1999.90;999.90;;;25.20;99.90;;;;;;5018616;28;20040;-72
2023/03/27 05:05:15;;;;;;;1999.90;999.90;;;25.10;99.90;;;;;;5030316;28;20029;-74
2023/03/27 05:07:47;;;;;;;1999.90;999.90;;;25.10;99.90;;;;;;5035455;28;20099;-73
2023/03/27 05:10:16;;;;;;;1999.90;999.90;;;25.10;99.90;;;;;;5029896;28;20021;-71
2023/03/27 05:12:47;;;;;;;1999.90;999.90;;;25.10;99.90;;;;;;5036845;28;20056;-71
2023/03/27 05:15:15;;;;;;;1999.90;999.90;;;25.20;99.90;;;;;;5032492;28;20021;-73
2023/03/27 05:17:44;;;;;;;1999.90;999.90;;;25.20;99.90;;;;;;5029049;28;20028;-72
2023/03/27 05:20:16;;;;;;;1999.90;999.90;;;25.30;99.90;;;;;;5028802;28;20056;-71
2023/03/27 05:22:45;;;;;;;1999.90;999.90;;;25.50;99.90;;;;;;5030465;28;20029;-72
2023/03/27 05:25:12;;;;;;;1999.90;999.90;;;25.60;99.90;;;;;;5034790;28;20034;-70
2023/03/27 05:27:48;;;;;;;1999.90;999.90;;;25.50;99.90;;;;;;5032155;28;20577;-73
2023/03/27 05:30:19;;;;;;;1999.90;999.90;;;25.50;99.90;;;;;;5037452;28;20033;-71
2023/03/27 05:32:50;;;;;;;1999.90;999.90;;;25.40;99.90;;;;;;5031448;28;20033;-74
2023/03/27 05:35:19;;;;;;;1999.90;999.90;;;25.40;99.90;;;;;;5039083;28;20032;-73
2023/03/27 05:37:48;;;;;;;1999.90;999.90;;;25.40;99.90;;;;;;5035802;28;20363;-71
2023/03/27 05:40:20;;;;;;;1999.90;999.90;;;25.40;99.90;;;;;;5035039;28;20025;-73
2023/03/27 05:42:50;;;;;;;1999.90;999.90;;;25.30;99.90;;;;;;5034501;28;20526;-71
2023/03/27 05:45:18;;;;;;;1999.90;999.90;;;25.30;99.90;;;;;;5033526;28;20013;-74
2023/03/27 05:47:56;;;;;;;1999.90;999.90;;;25.20;99.90;;;;;;5032808;28;20087;-73
2023/03/27 05:50:27;;;;;;;1999.90;999.90;;;25.20;99.90;;;;;;5033002;28;20499;-73
2023/03/27 05:53:03;;;;;;;1999.90;999.90;;;25.20;99.90;;;;;;5034043;28;20037;-73
2023/03/27 05:55:31;;;;;;;1999.90;999.90;;;25.20;99.90;;;;;;5036541;28;20163;-71
2023/03/27 05:57:58;;;;;;;1999.90;999.90;;;25.20;99.90;;;;;;5031077;28;20021;-72
2023/03/27 06:00:30;;;;;;;1999.90;999.90;;;25.20;99.90;;;;;;5025194;28;21490;-72
2023/03/27 06:03:00;;;;;;;1999.90;999.90;;;25.20;99.90;;;;;;5023449;28;20033;-73
2023/03/27 06:05:28;;;;;;;1999.90;999.90;;;25.30;99.90;;;;;;5020021;28;20025;-74
2023/03/27 06:07:57;;;;;;;1999.90;999.90;;;25.20;99.90;;;;;;5023578;28;20415;-72
2023/03/27 06:10:27;;;;;;;1999.90;999.90;;;25.10;99.90;;;;;;5023512;28;20026;-71
2023/03/27 06:13:12;;;;;;;1999.90;999.90;;;25.10;99.90;;;;;;5019969;28;20585;-71
2023/03/27 06:15:42;;;;;;;1999.90;999.90;;;25.00;99.90;;;;;;5022617;28;20052;-71
2023/03/27 06:18:10;;;;;;;1999.90;999.90;;;24.80;99.90;;;;;;5020077;28;20076;-71
2023/03/27 06:20:38;;;;;;;1999.90;999.90;;;24.70;99.90;;;;;;5022681;28;20727;-71
2023/03/27 06:23:08;;;;;;;1999.90;999.90;;;24.70;99.90;;;;;;5020109;28;20029;-71
2023/03/27 06:25:37;;;;;;;1999.90;999.90;;;24.60;99.90;;;;;;5023085;28;20109;-71
2023/03/27 06:28:08;;;;;;;1999.90;999.90;;;24.50;99.90;;;;;;5024717;28;20084;-72
2023/03/27 06:30:39;;;;;;;1999.90;999.90;;;24.50;99.90;;;;;;5025284;28;20117;-72
2023/03/27 06:33:07;;;;;;;1999.90;999.90;;;24.40;99.90;;;;;;5017254;28;20080;-71
2023/03/27 06:35:35;;;;;;;1999.90;999.90;;;24.40;99.90;;;;;;5028883;28;20116;-71
2023/03/27 06:38:02;;;;;;;1999.90;999.90;;;24.40;99.90;;;;;;5025231;28;20032;-71
2023/03/27 06:40:34;;;;;;;1999.90;999.90;;;24.40;99.90;;;;;;5031911;28;20033;-72
2023/03/27 06:43:04;;;;;;;1999.90;999.90;;;24.40;99.90;;;;;;5023780;28;20507;-70
2023/03/27 06:45:34;;;;;;;1999.90;999.90;;;24.40;99.90;;;;;;5026858;28;20103;-71
2023/03/27 06:48:04;;;;;;;1999.90;999.90;;;24.50;99.90;;;;;;5023870;28;20472;-71
2023/03/27 06:50:32;;;;;;;1999.90;999.90;;;24.50;99.90;;;;;;5024495;28;20064;-71
2023/03/27 06:53:00;;;;;;;1999.90;999.90;;;24.50;99.90;;;;;;5022947;28;20136;-71
2023/03/27 06:55:30;;;;;;;1999.90;999.90;;;24.60;99.90;;;;;;5020687;28;20112;-72
2023/03/27 06:58:00;;;;;;;1999.90;999.90;;;24.60;99.90;;;;;;5031075;28;20048;-71
2023/03/27 07:00:31;;;;;;;1999.90;999.90;;;24.60;99.90;;;;;;5028700;28;20029;-71
2023/03/27 07:03:01;;;;;;;1999.90;999.90;;;24.70;99.90;;;;;;5026295;28;20105;-71
2023/03/27 07:05:32;;;;;;;1999.90;999.90;;;24.60;99.90;;;;;;5028825;28;20051;-72
2023/03/27 07:08:00;;;;;;;1999.90;999.90;;;24.50;99.90;;;;;;5034227;28;20044;-71
2023/03/27 07:10:27;;;;;;;1999.90;999.90;;;24.40;99.90;;;;;;5030965;28;20444;-72
2023/03/27 07:12:55;;;;;;;1999.90;999.90;;;24.30;99.90;;;;;;5025673;28;20029;-73
2023/03/27 07:15:23;;;;;;;1999.90;999.90;;;24.20;99.90;;;;;;5033752;28;20476;-71
2023/03/27 07:17:59;;;;;;;1999.90;999.90;;;24.10;99.90;;;;;;5027260;28;20121;-71
2023/03/27 07:20:29;;;;;;;;;;;24.10;99.90;;;;;;5038341;28;20021;-72
2023/03/27 07:22:58;;;;;;;1999.90;999.90;;;24.00;99.90;;;;;;5032490;28;19916;-72
2023/03/27 07:25:27;;;;;;;1999.90;999.90;;;24.00;99.90;;;;;;5037088;28;20818;-71
2023/03/27 07:27:59;;;;;;;1999.90;999.90;;;24.00;99.90;;;;;;5037197;28;20535;-71
2023/03/27 07:30:27;;;;;;;1999.90;999.90;;;23.90;99.90;;;;;;5037445;28;20033;-72
2023/03/27 07:32:54;;;;;;;1999.90;999.90;;;23.80;99.90;;;;;;5035306;28;20514;-72
2023/03/27 07:35:21;;;;;;;1999.90;999.90;;;23.80;99.90;;;;;;5036586;28;20100;-70
2023/03/27 07:37:49;;;;;;;1999.90;999.90;;;23.70;99.90;;;;;;5030698;28;20036;-71
2023/03/27 07:40:20;;;;;;;1999.90;999.90;;;23.80;99.90;;;;;;5035589;28;20485;-71
2023/03/27 07:42:50;;;;;;;1999.90;999.90;;;23.70;99.90;;;;;;5033913;28;20071;-73
2023/03/27 07:45:18;;;;;;;1999.90;999.90;;;23.70;99.90;;;;;;5045647;28;20415;-71
2023/03/27 07:47:46;;;;;;;1999.90;999.90;;;23.70;99.90;;;;;;5031225;28;20063;-71
2023/03/27 07:50:15;;;;;;;1999.90;999.90;;;23.70;99.90;;;;;;5034416;28;20472;-72
2023/03/27 07:52:43;;;;;;;1999.90;999.90;;;23.60;99.90;;;;;;5035083;28;20041;-72
2023/03/27 07:55:15;;;;;;;1999.90;999.90;;;23.60;99.90;;;;;;5047030;28;20543;-70
2023/03/27 07:57:46;;;;;;;1999.90;999.90;;;23.50;99.90;;;;;;5034992;28;20033;-71
2023/03/27 08:00:15;;;;;;;1999.90;999.90;;;23.50;99.90;;;;;;5036494;28;20072;-72
2023/03/27 08:02:45;;;;;;;1999.90;999.90;;;23.40;99.90;;;;;;5032793;28;20053;-73
2023/03/27 08:05:13;;;;;;;1999.90;999.90;;;23.30;99.90;;;;;;5029325;28;20091;-72
2023/03/27 08:07:41;;;;;;;1999.90;999.90;;;23.30;99.90;;;;;;5030782;28;20061;-70
2023/03/27 08:10:10;;;;;;;1999.90;999.90;;;23.20;99.90;;;;;;5030999;28;20026;-72
2023/03/27 08:12:37;;;;;;;1999.90;999.90;;;23.10;99.90;;;;;;5028565;28;20088;-72
2023/03/27 08:15:06;;;;;;;1999.90;999.90;;;23.10;99.90;;;;;;5033203;28;20113;-74
2023/03/27 08:17:34;;;;;;;1999.90;999.90;;;23.00;99.90;;;;;;5025950;28;20155;-73
2023/03/27 08:20:07;;;;;;;1999.90;999.90;;;23.00;99.90;;;;;;5024567;28;20045;-70
2023/03/27 08:22:38;;;;;;;1999.90;999.90;;;22.90;99.90;;;;;;5026858;28;20028;-72
2023/03/27 08:25:07;;;;;;;1999.90;999.90;;;22.90;99.90;;;;;;5033883;28;20060;-69
2023/03/27 08:27:34;;;;;;;1999.90;999.90;;;22.90;99.90;;;;;;5040131;28;20108;-75
2023/03/27 08:30:03;;;;;;;1999.90;999.90;;;22.80;99.90;;;;;;5037240;28;20037;-71
2023/03/27 08:32:30;;;;;;;1999.90;999.90;;;22.80;99.90;;;;;;5032483;28;20047;-71
2023/03/27 08:34:58;;;;;;;1999.90;999.90;;;22.70;99.90;;;;;;5033042;28;20024;-71
2023/03/27 08:37:26;;;;;;;1999.90;999.90;;;22.70;99.90;;;;;;5032664;28;20037;-71
2023/03/27 08:39:57;;;;;;;1999.90;999.90;;;22.70;99.90;;;;;;5034843;28;20113;-71
2023/03/27 08:42:35;;;;;;;1999.90;999.90;;;22.60;99.90;;;;;;5032622;28;20030;-70
2023/03/27 08:45:18;;;;;;;1999.90;999.90;;;22.60;99.90;;;;;;5033053;28;20053;-72
2023/03/27 08:47:57;;;;;;;1999.90;999.90;;;22.60;99.90;;;;;;5034869;28;20103;-71
2023/03/27 08:50:41;;;;;;;1999.90;999.90;;;22.60;99.90;;;;;;5035489;28;20059;-71
2023/03/27 08:53:35;;;;;;;1999.90;999.90;;;22.60;99.90;;;;;;5036164;28;20492;-72
2023/03/27 08:56:03;;;;;;;1999.90;999.90;;;22.60;99.90;;;;;;5039338;28;20036;-72
2023/03/27 08:58:33;;;;;;;1999.90;999.90;;;22.60;99.90;;;;;;5031360;28;20047;-72
2023/03/27 09:01:28;;;;;;;1999.90;999.90;;;22.60;99.90;;;;;;5035212;28;20352;-71
2023/03/27 09:04:00;;;;;;;1999.90;999.90;;;22.60;99.90;;;;;;5032158;28;20056;-71
2023/03/27 09:06:37;;;;;;;1999.90;999.90;;;22.60;99.90;;;;;;5030206;28;20515;-70
2023/03/27 09:09:11;;;;;;;1999.90;999.90;;;22.60;99.90;;;;;;5028542;28;20037;-70
2023/03/27 09:11:52;;;;;;;1999.90;999.90;;;22.60;99.90;;;;;;5034896;28;20125;-71
2023/03/27 09:14:27;;;;;;;1999.90;999.90;;;22.50;99.90;;;;;;5036024;28;20064;-72
2023/03/27 09:16:59;;;;;;;1999.90;999.90;;;22.60;99.90;;;;;;5032610;28;20496;-72
2023/03/27 09:19:41;;;;;;;1999.90;999.90;;;22.60;99.90;;;;;;5036479;28;20033;-71
2023/03/27 09:22:29;;;;;;;1999.90;999.90;;;22.50;99.90;;;;;;5035885;28;20124;-70
2023/03/27 09:25:01;;;;;;;1999.90;999.90;;;22.50;99.90;;;;;;5032570;28;20040;-71
2023/03/27 09:27:35;;;;;;;1999.90;999.90;;;22.50;99.90;;;;;;5030966;28;20052;-71
2023/03/27 09:30:34;;;;;;;1999.90;999.90;;;22.50;99.90;;;;;;5037611;28;20099;-71
2023/03/27 09:33:04;;;;;;;1999.90;999.90;;;22.50;99.90;;;;;;5037433;28;20480;-71
2023/03/27 09:35:34;;;;;;;1999.90;999.90;;;22.50;99.90;;;;;;5029809;28;20498;-70
2023/03/27 09:38:08;;;;;;;1999.90;999.90;;;22.40;99.90;;;;;;5037178;28;20399;-70
2023/03/27 09:40:57;;;;;;;1999.90;999.90;;;22.30;99.90;;;;;;5027952;28;20021;-70
2023/03/27 09:43:36;;;;;;;1999.90;999.90;;;22.30;99.90;;;;;;5028368;28;20376;-71
2023/03/27 09:46:04;;;;;;;1999.90;999.90;;;22.20;99.90;;;;;;5029650;28;20049;-71
2023/03/27 09:49:09;;;;;;;1999.90;999.90;;;22.20;99.90;;;;;;5028173;28;20583;-71
2023/03/27 09:51:44;;;;;;;1999.90;999.90;;;22.20;99.90;;;;;;5035426;28;20075;-70
2023/03/27 09:54:13;;;;;;;1999.90;999.90;;;22.10;99.90;;;;;;5027222;28;20119;-70
2023/03/27 09:56:46;;;;;;;1999.90;999.90;;;22.10;99.90;;;;;;5038006;28;20038;-70
2023/03/27 09:59:25;;;;;;;1999.90;999.90;;;22.10;99.90;;;;;;5028474;28;20032;-70
2023/03/27 10:01:56;;;;;;;1999.90;999.90;;;22.10;99.90;;;;;;5050961;28;20455;-69
2023/03/27 10:04:26;;;;;;;1999.90;999.90;;;22.10;99.90;;;;;;5035307;28;20112;-69
2023/03/27 10:07:00;;;;;;;1999.90;999.90;;;22.10;99.90;;;;;;5038828;28;20025;-70
2023/03/27 10:09:31;;;;;;;1999.90;999.90;;;22.00;99.90;;;;;;5032033;28;20120;-71
2023/03/27 10:12:15;;;;;;;1999.90;999.90;;;22.00;99.90;;;;;;5032403;28;20048;-70
2023/03/27 10:14:46;;;;;;;1999.90;999.90;;;22.00;99.90;;;;;;5034487;28;20045;-68
2023/03/27 10:17:27;;;;;;;1999.90;999.90;;;22.00;99.90;;;;;;5031445;28;20037;-68
2023/03/27 10:20:04;;;;;;;1999.90;999.90;;;22.00;99.90;;;;;;5036089;28;20025;-69
2023/03/27 10:22:35;;;;;;;1999.90;999.90;;;22.10;99.90;;;;;;5038021;28;20032;-70
2023/03/27 10:25:10;;;;;;;1999.90;999.90;;;22.10;99.90;;;;;;5039577;28;20030;-69
2023/03/27 10:27:42;;;;;;;1999.90;999.90;;;22.00;99.90;;;;;;5035452;28;20028;-69
2023/03/27 10:30:29;;;;;;;1999.90;999.90;;;22.00;99.90;;;;;;5035396;28;20091;-71
2023/03/27 10:32:56;;;;;;;1999.90;999.90;;;22.00;99.90;;;;;;5037492;28;20395;-71
2023/03/27 10:35:34;;;;;;;1999.90;999.90;;;22.00;99.90;;;;;;5041254;28;20044;-71
2023/03/27 10:38:06;;;;;;;1999.90;999.90;;;22.00;99.90;;;;;;5035799;28;20151;-70
2023/03/27 10:40:36;;;;;;;1999.90;999.90;;;22.00;99.90;;;;;;5035322;28;20040;-71
2023/03/27 10:43:39;;;;;;;1999.90;999.90;;;21.90;99.90;;;;;;5031398;28;20033;-71
2023/03/27 10:46:30;;;;;;;1999.90;999.90;;;21.90;99.90;;;;;;5023643;28;20046;-71
2023/03/27 10:49:16;;;;;;;1999.90;999.90;;;21.90;99.90;;;;;;5038096;28;20083;-70
2023/03/27 10:52:06;;;;;;;1999.90;999.90;;;21.90;99.90;;;;;;5034618;28;20033;-70
2023/03/27 10:54:36;;;;;;;1999.90;999.90;;;21.90;99.90;;;;;;5038850;28;20032;-70
2023/03/27 10:57:14;;;;;;;1999.90;999.90;;;21.90;99.90;;;;;;5031257;28;20052;-71
2023/03/27 10:59:50;;;;;;;1999.90;999.90;;;21.90;99.90;;;;;;5036790;28;20056;-73
2023/03/27 11:02:27;;;;;;;1999.90;999.90;;;21.90;99.90;;;;;;5041931;28;20040;-70
2023/03/27 11:05:11;;;;;;;1999.90;999.90;;;21.90;99.90;;;;;;5029896;28;20045;-71
2023/03/27 11:07:49;;;;;;;1999.90;999.90;;;21.80;99.90;;;;;;5028378;28;20030;-71
2023/03/27 11:10:35;;;;;;;1999.90;999.90;;;21.80;99.90;;;;;;5035807;28;20032;-71
2023/03/27 11:13:44;;;;;;;1999.90;999.90;;;21.80;99.90;;;;;;5030364;28;20041;-70
2023/03/27 11:16:22;;;;;;;1999.90;999.90;;;21.80;99.90;;;;;;5009933;28;20033;-70
2023/03/27 11:19:07;;;;;;;1999.90;999.90;;;21.70;99.90;;;;;;5020050;28;20563;-72
2023/03/27 11:21:41;;;;;;;1999.90;999.90;;;21.70;99.90;;;;;;5028538;28;20090;-69
2023/03/27 11:24:28;;;;;;;1999.90;999.90;;;21.70;99.90;;;;;;5030850;28;20033;-71
2023/03/27 11:27:02;;;;;;;1999.90;999.90;;;21.70;99.90;;;;;;5030905;28;20053;-70
2023/03/27 11:30:03;;;;;;;1999.90;999.90;;;21.70;99.90;;;;;;5032570;28;20047;-69
2023/03/27 11:32:43;;;;;;;1999.90;999.90;;;21.60;99.90;;;;;;5041544;28;20114;-70
2023/03/27 11:35:22;;;;;;;1999.90;999.90;;;21.60;99.90;;;;;;5031973;28;20048;-71
2023/03/27 11:38:06;;;;;;;1999.90;999.90;;;21.60;99.90;;;;;;5028525;28;20021;-70
2023/03/27 11:40:42;;;;;;;1999.90;999.90;;;21.70;99.90;;;;;;5033727;28;20488;-70
2023/03/27 11:43:14;;;;;;;1999.90;999.90;;;21.60;99.90;;;;;;5029855;28;20044;-70
2023/03/27 11:46:15;;;;;;;1999.90;999.90;;;21.60;99.90;;;;;;5033550;28;20081;-70
2023/03/27 11:49:05;;;;;;;1999.90;999.90;;;21.60;99.90;;;;;;5033599;28;20467;-71
2023/03/27 11:51:59;;;;;;;1999.90;999.90;;;21.70;99.90;;;;;;5035006;28;20040;-71
2023/03/27 11:54:29;;;;;;;1999.90;999.90;;;21.70;99.90;;;;;;5038003;28;20484;-72
2023/03/27 11:57:01;;;;;;;1999.90;999.90;;;21.70;99.90;;;;;;5040314;28;20033;-73
2023/03/27 11:59:47;;;;;;;1999.90;999.90;;;21.70;99.90;;;;;;5029209;28;20038;-71
2023/03/27 12:02:40;;;;;;;1999.90;999.90;;;21.60;99.90;;;;;;5034964;28;20036;-71
2023/03/27 12:05:13;;;;;;;1999.90;999.90;;;21.60;99.90;;;;;;5031277;28;20454;-70
2023/03/27 12:08:03;;;;;;;1999.90;999.90;;;21.60;99.90;;;;;;5035435;28;20464;-70
2023/03/27 12:10:34;;;;;;;1999.90;999.90;;;21.50;99.90;;;;;;5026257;28;20047;-71
2023/03/27 12:13:22;;;;;;;1999.90;999.90;;;21.50;99.90;;;;;;5034250;28;20064;-71
2023/03/27 12:16:08;;;;;;;1999.90;999.90;;;21.50;99.90;;;;;;5035923;28;20036;-71
2023/03/27 12:18:44;;;;;;;1999.90;999.90;;;21.50;99.90;;;;;;5029624;28;20126;-71
2023/03/27 12:21:23;;;;;;;1999.90;999.90;;;21.50;99.90;;;;;;5026111;28;20030;-71
2023/03/27 12:24:13;;;;;;;1999.90;999.90;;;21.50;99.90;;;;;;5026035;28;20373;-71
2023/03/27 12:27:04;;;;;;;1999.90;999.90;;;21.50;99.90;;;;;;5033188;28;20365;-71
2023/03/27 12:29:55;;;;;;;1999.90;999.90;;;21.50;99.90;;;;;;5032508;28;20044;-69
2023/03/27 12:32:37;;;;;;;1999.90;999.90;;;21.50;99.90;;;;;;5030482;28;20033;-71
2023/03/27 12:35:14;;;;;;;1999.90;999.90;;;21.40;99.90;;;;;;5030980;28;20026;-70
2023/03/27 12:38:21;;;;;;;1999.90;999.90;;;21.40;99.90;;;;;;5032063;28;20040;-70